createdAt,value
2019-01-17T00:05:59.914Z,7.03
2019-01-17T00:12:29.310Z,6.47
2019-01-17T00:19:01.467Z,5.62
2019-01-17T00:25:29.503Z,6.42
2019-01-17T00:31:50.416Z,6.55
2019-01-17T00:38:22.976Z,7.72
2019-01-17T00:44:52.211Z,7.12
2019-01-17T00:51:14.022Z,8.70
2019-01-17T00:57:31.976Z,9.30
2019-01-17T01:04:10.071Z,9.10
2019-01-17T01:10:29.288Z,10.32
2019-01-17T01:17:01.418Z,8.73
2019-01-17T01:23:36.017Z,8.68
2019-01-17T01:30:05.070Z,9.90
2019-01-17T01:36:31.159Z,9.55
2019-01-17T01:43:00.543Z,8.78
2019-01-17T01:49:16.486Z,8.18
2019-01-17T01:55:20.795Z,8.15
2019-01-17T02:01:25.022Z,8.65
2019-01-17T02:07:29.346Z,8.58
2019-01-17T02:13:33.834Z,8.03
2019-01-17T02:19:38.231Z,8.50
2019-01-17T02:25:42.495Z,7.78
2019-01-17T02:31:46.817Z,8.13
2019-01-17T02:37:51.130Z,9.13
2019-01-17T02:43:55.426Z,9.30
2019-01-17T02:50:00.133Z,11.53
2019-01-17T02:56:04.578Z,9.93
2019-01-17T03:02:08.881Z,9.70
2019-01-17T03:08:13.185Z,9.85
2019-01-17T03:14:17.530Z,9.98
2019-01-17T03:20:21.879Z,9.93
2019-01-17T03:26:26.106Z,9.48
2019-01-17T03:32:30.543Z,8.58
2019-01-17T03:38:34.837Z,8.13
2019-01-17T03:44:39.098Z,8.53
2019-01-17T03:50:43.386Z,6.92
2019-01-17T03:56:47.795Z,8.20
2019-01-17T04:02:52.060Z,7.80
2019-01-17T04:08:56.394Z,7.33
2019-01-17T04:15:01.130Z,6.92
2019-01-17T04:21:05.367Z,6.72
2019-01-17T04:27:09.654Z,5.55
2019-01-17T04:33:14.170Z,5.75
2019-01-17T04:39:18.434Z,5.55
2019-01-17T04:45:22.803Z,4.70
2019-01-17T04:51:27.119Z,3.50
2019-01-17T04:57:31.541Z,3.10
2019-01-17T05:03:35.767Z,2.20
2019-01-17T05:09:40.195Z,1.90
2019-01-17T05:15:44.423Z,1.40
2019-01-17T05:21:48.817Z,1.22
2019-01-17T05:27:56.221Z,1.35
2019-01-17T05:34:00.600Z,0.95
2019-01-17T05:40:06.277Z,1.27
2019-01-17T05:46:10.582Z,0.70
2019-01-17T05:52:14.824Z,0.50
2019-01-17T05:58:19.163Z,0.62
2019-01-17T06:04:23.471Z,0.80
2019-01-17T06:10:27.799Z,0.80
2019-01-17T06:16:32.033Z,1.20
2019-01-17T06:22:36.395Z,1.10
2019-01-17T06:28:40.871Z,1.90
2019-01-17T06:34:45.230Z,2.30
2019-01-17T06:40:49.496Z,2.10
2019-01-17T06:46:53.806Z,2.62
2019-01-17T06:52:58.088Z,2.08
2019-01-17T06:59:02.438Z,1.90
2019-01-17T07:05:07.572Z,1.20
2019-01-17T07:11:11.874Z,1.10
2019-01-17T07:17:16.160Z,1.82
2019-01-17T07:23:20.456Z,1.17
2019-01-17T07:29:24.704Z,0.90
2019-01-17T07:35:29.038Z,0.90
2019-01-17T07:41:33.344Z,0.90
2019-01-17T07:47:37.642Z,0.68
2019-01-17T07:53:41.974Z,1.25
2019-01-17T07:59:46.224Z,0.60
2019-01-17T08:05:50.454Z,0.97
2019-01-17T08:11:54.734Z,1.40
2019-01-17T08:17:58.960Z,1.70
2019-01-17T08:24:03.185Z,2.10
2019-01-17T08:30:11.076Z,2.22
2019-01-17T08:36:15.300Z,2.50
2019-01-17T08:42:19.621Z,2.35
2019-01-17T08:48:24.006Z,2.47
2019-01-17T08:54:28.478Z,2.58
2019-01-17T09:00:32.779Z,2.70
2019-01-17T09:06:37.003Z,3.35
2019-01-17T09:12:41.234Z,3.75
2019-01-17T09:18:45.663Z,4.50
2019-01-17T09:24:49.904Z,5.00
2019-01-17T09:30:54.155Z,4.62
2019-01-17T09:36:58.553Z,4.03
2019-01-17T09:43:02.865Z,4.72
2019-01-17T09:49:07.113Z,4.80
2019-01-17T09:55:11.437Z,4.08
2019-01-17T10:01:15.699Z,4.15
2019-01-17T10:07:20.057Z,3.40
2019-01-17T10:13:24.484Z,3.20
2019-01-17T10:19:55.783Z,1.30
2019-01-17T10:26:14.349Z,1.05
2019-01-17T10:32:50.751Z,0.80
2019-01-17T10:39:40.763Z,1.20
2019-01-17T10:46:30.733Z,1.60
2019-01-17T10:53:18.898Z,2.15
2019-01-17T10:59:59.710Z,1.98
2019-01-17T11:06:46.422Z,1.37
2019-01-17T11:13:20.056Z,1.07
2019-01-17T11:20:06.852Z,1.20
2019-01-17T11:27:03.920Z,0.70
2019-01-17T11:33:39.514Z,1.32
2019-01-17T11:40:26.697Z,1.35
2019-01-17T11:47:09.120Z,1.30
2019-01-17T11:53:45.824Z,1.40
2019-01-17T12:00:20.707Z,1.12
2019-01-17T12:06:25.029Z,1.60
2019-01-17T12:12:29.327Z,1.72
2019-01-17T12:18:33.554Z,1.95
2019-01-17T12:24:37.755Z,1.90
2019-01-17T12:30:42.028Z,1.87
2019-01-17T12:36:46.302Z,2.08
2019-01-17T12:42:51.602Z,1.27
2019-01-17T12:48:55.947Z,2.27
2019-01-17T12:55:00.170Z,2.02
2019-01-17T13:01:04.820Z,1.45
2019-01-17T13:07:09.207Z,2.40
2019-01-17T13:13:13.519Z,1.47
2019-01-17T13:19:17.891Z,1.12
2019-01-17T13:25:22.576Z,1.35
2019-01-17T13:31:26.988Z,1.95
2019-01-17T13:37:31.568Z,1.60
2019-01-17T13:43:35.809Z,1.77
2019-01-17T13:49:40.213Z,1.30
2019-01-17T13:55:44.746Z,1.50
2019-01-17T14:01:49.051Z,1.27
2019-01-17T14:07:53.334Z,1.65
2019-01-17T14:13:57.539Z,1.60
2019-01-17T14:20:02.026Z,1.80
2019-01-17T14:26:06.383Z,1.40
2019-01-17T14:32:10.725Z,2.10
2019-01-17T14:38:15.216Z,1.52
2019-01-17T14:44:19.541Z,1.65
2019-01-17T14:50:26.318Z,1.87
2019-01-17T14:56:30.680Z,1.30
2019-01-17T15:02:35.342Z,2.33
2019-01-17T15:08:39.640Z,1.57
2019-01-17T15:14:43.863Z,1.57
2019-01-17T15:20:48.160Z,1.62
2019-01-17T15:26:52.394Z,1.85
2019-01-17T15:32:56.692Z,1.50
2019-01-17T15:39:01.039Z,2.35
2019-01-17T15:45:05.973Z,1.90
2019-01-17T15:51:10.400Z,2.22
2019-01-17T15:57:14.633Z,1.50
2019-01-17T16:03:19.231Z,2.80
2019-01-17T16:09:23.805Z,2.08
2019-01-17T16:15:28.655Z,2.00
2019-01-17T16:21:32.885Z,2.00
2019-01-17T16:27:41.865Z,2.20
2019-01-17T16:33:43.227Z,2.05
2019-01-17T16:39:47.606Z,2.08
2019-01-17T16:45:51.845Z,2.65
2019-01-17T16:51:56.148Z,1.42
2019-01-17T16:58:00.462Z,2.00
2019-01-17T17:04:04.860Z,2.60
2019-01-17T17:10:10.115Z,1.37
2019-01-17T17:16:14.448Z,1.25
2019-01-17T17:22:19.106Z,1.65
2019-01-17T17:28:23.421Z,1.80
2019-01-17T17:34:27.770Z,2.00
2019-01-17T17:40:32.306Z,2.00
2019-01-17T17:46:36.674Z,1.42
2019-01-17T17:52:40.952Z,1.05
2019-01-17T17:58:45.297Z,1.20
2019-01-17T18:04:49.690Z,1.85
2019-01-17T18:10:54.108Z,1.80
2019-01-17T18:16:58.514Z,1.70
2019-01-17T18:23:02.749Z,1.35
2019-01-17T18:29:07.055Z,1.50
2019-01-17T18:35:11.704Z,1.50
2019-01-17T18:41:15.965Z,2.17
2019-01-17T18:47:20.312Z,2.17
2019-01-17T18:53:24.678Z,2.00
2019-01-17T18:59:29.006Z,2.40
2019-01-17T19:05:33.500Z,2.45
2019-01-17T19:11:37.859Z,2.75
2019-01-17T19:17:42.624Z,2.80
2019-01-17T19:23:46.985Z,2.80
2019-01-17T19:29:51.226Z,3.05
2019-01-17T19:35:55.450Z,2.95
2019-01-17T19:41:59.875Z,3.08
2019-01-17T19:48:04.251Z,3.17
2019-01-17T19:54:08.585Z,2.58
2019-01-17T20:00:14.173Z,2.90
2019-01-17T20:06:18.589Z,3.23
2019-01-17T20:12:22.911Z,3.83
2019-01-17T20:18:27.283Z,5.03
2019-01-17T20:24:31.584Z,5.23
2019-01-17T20:30:36.214Z,3.50
2019-01-17T20:36:40.489Z,5.67
2019-01-17T20:42:44.704Z,4.60
2019-01-17T20:48:49.019Z,4.25
2019-01-17T20:54:53.347Z,6.28
2019-01-17T21:01:50.582Z,4.75
2019-01-17T21:07:54.951Z,4.05
2019-01-17T21:13:59.322Z,3.08
2019-01-17T21:20:03.795Z,3.17
2019-01-17T21:26:08.178Z,3.83
2019-01-17T21:32:12.512Z,5.40
2019-01-17T21:38:16.921Z,6.15
2019-01-17T21:44:21.236Z,12.68
2019-01-17T21:50:27.612Z,7.95
2019-01-17T21:56:32.000Z,5.33
2019-01-17T22:02:36.236Z,15.53
2019-01-17T22:08:40.462Z,21.48
2019-01-17T22:14:44.708Z,5.75
2019-01-17T22:20:49.042Z,6.78
2019-01-17T22:26:53.307Z,5.33
2019-01-17T22:32:57.673Z,16.57
2019-01-17T22:39:02.085Z,8.10
2019-01-17T22:45:08.208Z,2.67
2019-01-17T22:51:12.510Z,3.17
2019-01-17T22:57:17.119Z,3.15
2019-01-17T23:03:23.973Z,3.15
2019-01-17T23:09:28.243Z,2.97
2019-01-17T23:15:32.501Z,2.80
2019-01-17T23:21:36.683Z,4.30
2019-01-17T23:27:40.959Z,6.50
2019-01-17T23:33:45.245Z,4.03
2019-01-17T23:39:49.595Z,6.07
2019-01-17T23:45:53.846Z,3.77
2019-01-17T23:51:58.185Z,3.13
2019-01-17T23:58:02.479Z,3.20
